Time;durP1;ratioP1;P1;durP2;ratioP2;P2;SDS_P1;SDS_P2;PMS_P1;PMS_P2;Temp;Humidity;BMP_temperature;BMP_pressure;BME280_temperature;BME280_humidity;BME280_pressure;Samples;Min_cycle;Max_cycle;Signal;HPM_P1;HPM_P2
2023/01/14 00:00:23;;;;;;;19.52;5.13;;;;;;;8.52;67.58;101404.72;5031049;28;20021;-76
2023/01/14 00:02:49;;;;;;;18.75;4.50;;;;;;;8.49;67.72;101407.09;5012097;28;20116;-76
2023/01/14 00:05:14;;;;;;;19.30;4.28;;;;;;;8.48;67.50;101414.56;5013201;28;20026;-76
2023/01/14 00:07:40;;;;;;;15.27;3.97;;;;;;;8.49;67.85;101419.03;5025452;28;20121;-75
2023/01/14 00:10:06;;;;;;;29.10;4.80;;;;;;;8.46;67.22;101427.78;5032562;28;20021;-76
2023/01/14 00:12:32;;;;;;;18.95;4.65;;;;;;;8.44;67.24;101429.91;5032412;28;20079;-76
2023/01/14 00:14:57;;;;;;;16.30;4.68;;;;;;;8.41;67.16;101433.16;5028717;28;20067;-76
2023/01/14 00:17:22;;;;;;;20.17;5.13;;;;;;;8.44;67.36;101421.59;5012006;28;20021;-75
2023/01/14 00:19:48;;;;;;;24.33;4.63;;;;;;;8.44;66.94;101429.06;5012641;28;20362;-75
2023/01/14 00:22:13;;;;;;;19.08;4.35;;;;;;;8.44;67.57;101427.13;5013011;28;20046;-75
2023/01/14 00:24:38;;;;;;;17.02;4.15;;;;;;;8.41;67.70;101422.09;5011969;28;20033;-76
2023/01/14 00:27:04;;;;;;;18.55;4.15;;;;;;;8.36;67.33;101416.31;5013049;28;20026;-75
2023/01/14 00:29:32;;;;;;;24.88;5.10;;;;;;;8.35;67.50;101415.47;5012162;28;20485;-75
2023/01/14 00:32:03;;;;;;;21.30;4.72;;;;;;;8.31;67.36;101416.16;5022890;28;20033;-76
2023/01/14 00:34:29;;;;;;;16.88;4.35;;;;;;;8.29;67.82;101408.09;5012300;28;20017;-76
2023/01/14 00:36:55;;;;;;;17.60;4.90;;;;;;;8.26;67.48;101408.53;5011812;28;20079;-75
2023/01/14 00:39:21;;;;;;;21.50;4.70;;;;;;;8.28;67.80;101411.06;5012449;28;20441;-75
2023/01/14 00:41:47;;;;;;;21.95;4.68;;;;;;;8.30;67.24;101406.19;5012265;28;20117;-76
2023/01/14 00:44:14;;;;;;;20.23;5.13;;;;;;;8.23;67.78;101414.50;5011815;28;20038;-76
2023/01/14 00:46:40;;;;;;;21.38;4.22;;;;;;;8.20;68.12;101423.25;5012069;28;20396;-76
2023/01/14 00:49:13;;;;;;;22.50;4.82;;;;;;;8.20;68.02;101416.88;5023419;28;20068;-76
2023/01/14 00:51:38;;;;;;;26.92;4.82;;;;;;;8.24;68.01;101426.41;5011910;28;20025;-75
2023/01/14 00:54:04;;;;;;;20.25;4.93;;;;;;;8.20;68.46;101426.00;5012529;28;20084;-76
2023/01/14 00:56:30;;;;;;;25.77;5.20;;;;;;;8.21;68.27;101422.16;5011685;28;20026;-76
2023/01/14 00:58:56;;;;;;;23.60;5.38;;;;;;;8.21;68.14;101424.09;5011696;28;20053;-76
2023/01/14 01:01:22;;;;;;;24.75;5.20;;;;;;;8.21;68.80;101419.41;5011616;28;20142;-76
2023/01/14 01:03:50;;;;;;;23.17;4.70;;;;;;;8.21;68.94;101426.84;5011835;28;20468;-75
2023/01/14 01:06:18;;;;;;;24.20;5.28;;;;;;;8.22;68.92;101429.41;5022424;28;20033;-75
2023/01/14 01:08:43;;;;;;;28.67;6.05;;;;;;;8.21;68.64;101427.69;5011678;28;20033;-75
2023/01/14 01:11:09;;;;;;;24.70;5.00;;;;;;;8.21;68.78;101426.84;5012385;28;20025;-75
2023/01/14 01:13:35;;;;;;;32.47;5.63;;;;;;;8.19;68.91;101435.38;5029609;28;20099;-75
2023/01/14 01:16:05;;;;;;;24.30;5.50;;;;;;;8.11;69.40;101433.75;5031655;28;20164;-75
2023/01/14 01:18:30;;;;;;;28.10;5.53;;;;;;;8.07;69.60;101431.66;5031622;28;20559;-75
2023/01/14 01:21:12;;;;;;;25.50;6.10;;;;;;;8.02;69.05;101429.56;5031038;28;20029;-75
2023/01/14 01:23:40;;;;;;;31.67;5.95;;;;;;;8.03;69.29;101417.41;5029292;28;20030;-75
2023/01/14 01:26:09;;;;;;;26.20;5.82;;;;;;;8.05;69.80;101428.25;5030992;28;20033;-75
2023/01/14 01:28:34;;;;;;;33.42;5.75;;;;;;;8.03;69.88;101425.72;5031050;28;20017;-76
2023/01/14 01:31:09;;;;;;;34.42;5.85;;;;;;;8.01;69.62;101427.84;5032067;28;20102;-75
2023/01/14 01:33:34;;;;;;;22.67;5.57;;;;;;;8.04;69.31;101430.16;5030613;28;20029;-76
2023/01/14 01:36:13;;;;;;;24.05;5.53;;;;;;;8.07;69.66;101434.41;5030936;28;20392;-75
2023/01/14 01:38:38;;;;;;;28.52;6.07;;;;;;;8.02;69.46;101424.03;5027378;28;20484;-75
2023/01/14 01:41:04;;;;;;;22.27;5.47;;;;;;;8.03;69.51;101420.19;5019534;28;20034;-75
2023/01/14 01:43:31;;;;;;;28.60;5.38;;;;;;;8.06;69.27;101433.56;5020716;28;20048;-75
2023/01/14 01:45:58;;;;;;;22.75;4.90;;;;;;;8.02;69.16;101426.78;5025554;28;20493;-74
2023/01/14 01:48:36;;;;;;;30.15;6.07;;;;;;;7.98;69.86;101428.31;5027264;28;20029;-75
2023/01/14 01:51:18;;;;;;;26.60;5.43;;;;;;;8.00;69.76;101423.38;5030586;28;20073;-75
2023/01/14 01:53:45;;;;;;;26.45;5.53;;;;;;;7.99;69.87;101429.16;5030829;28;20045;-75
2023/01/14 01:56:14;;;;;;;32.28;5.80;;;;;;;7.99;69.93;101427.22;5028185;28;20842;-76
2023/01/14 01:58:40;;;;;;;28.55;6.30;;;;;;;8.04;69.65;101427.41;5027495;28;20029;-75
2023/01/14 02:01:06;;;;;;;31.23;6.22;;;;;;;8.04;70.11;101430.16;5030384;28;20051;-75
2023/01/14 02:03:41;;;;;;;26.77;5.57;;;;;;;8.05;70.29;101423.56;5016670;28;20091;-75
2023/01/14 02:06:08;;;;;;;29.77;5.90;;;;;;;8.04;69.56;101418.25;5011243;28;20033;-75
2023/01/14 02:08:36;;;;;;;31.25;6.60;;;;;;;8.05;70.04;101418.03;5029758;28;20852;-76
2023/01/14 02:11:26;;;;;;;32.35;5.60;;;;;;;8.07;70.19;101410.38;5030418;28;20520;-75
2023/01/14 02:14:00;;;;;;;29.85;5.95;;;;;;;8.00;69.61;101404.03;5029318;28;20029;-75
2023/01/14 02:16:32;;;;;;;25.13;5.25;;;;;;;8.01;70.02;101397.44;5029323;28;20034;-75
2023/01/14 02:19:16;;;;;;;27.65;5.65;;;;;;;8.05;69.87;101392.31;5030855;28;20033;-75
2023/01/14 02:21:50;;;;;;;29.83;6.05;;;;;;;7.99;70.26;101377.47;5030871;28;20112;-75
2023/01/14 02:24:51;;;;;;;30.20;5.72;;;;;;;8.01;70.48;101367.03;5029660;28;20049;-75
2023/01/14 02:27:37;;;;;;;31.67;5.45;;;;;;;7.95;70.50;101367.94;5030317;28;20798;-76
2023/01/14 02:30:15;;;;;;;23.92;5.70;;;;;;;7.94;69.96;101354.31;5023557;28;20041;-75
2023/01/14 02:32:46;;;;;;;26.13;5.53;;;;;;;7.88;70.87;101351.38;5025257;28;20037;-75
2023/01/14 02:35:24;;;;;;;26.58;5.75;;;;;;;7.91;70.00;101349.25;5030593;28;20232;-75
2023/01/14 02:38:04;;;;;;;31.85;6.45;;;;;;;7.87;70.31;101337.78;5029915;28;20029;-75
2023/01/14 02:40:44;;;;;;;26.23;5.95;;;;;;;7.84;70.17;101325.25;5030560;28;20025;-75
2023/01/14 02:46:18;;;;;;;32.97;5.95;;;;;;;7.78;70.57;101325.28;5030628;28;20087;-75
2023/01/14 02:48:44;;;;;;;22.42;5.30;;;;;;;7.76;71.10;101316.41;5011294;28;20041;-75
2023/01/14 02:51:11;;;;;;;26.67;5.32;;;;;;;7.74;71.38;101319.41;5015487;28;20038;-75
2023/01/14 02:53:36;;;;;;;25.95;5.50;;;;;;;7.72;71.24;101318.75;5010527;28;20073;-75
2023/01/14 02:56:02;;;;;;;22.38;5.13;;;;;;;7.73;71.71;101317.69;5011103;28;20065;-75
2023/01/14 02:58:42;;;;;;;29.98;5.35;;;;;;;7.72;71.29;101306.88;5012774;28;20393;-75
2023/01/14 03:01:29;;;;;;;27.63;5.50;;;;;;;7.75;71.39;101311.94;5014879;28;20041;-75
2023/01/14 03:04:32;;;;;;;26.25;5.65;;;;;;;7.78;71.10;101314.25;5020179;28;20053;-75
2023/01/14 03:07:12;;;;;;;27.38;6.00;;;;;;;7.78;71.17;101323.41;5032952;28;20025;-75
2023/01/14 03:10:02;;;;;;;23.05;5.13;;;;;;;7.79;71.53;101303.00;5016663;28;20034;-75
2023/01/14 03:12:46;;;;;;;34.65;6.30;;;;;;;7.74;71.66;101299.19;5021350;28;20379;-75
2023/01/14 03:15:32;;;;;;;32.65;5.78;;;;;;;7.74;71.16;101299.19;5034312;28;20079;-75
2023/01/14 03:18:04;;;;;;;24.88;5.03;;;;;;;7.75;71.13;101289.84;5034405;28;20041;-75
2023/01/14 03:20:44;;;;;;;25.95;4.75;;;;;;;7.74;71.22;101277.94;5032562;28;20052;-75
2023/01/14 03:23:17;;;;;;;28.77;5.55;;;;;;;7.75;71.56;101270.50;5034337;28;20064;-75
2023/01/14 03:25:45;;;;;;;29.85;5.88;;;;;;;7.72;71.69;101277.31;5018464;28;20038;-75
2023/01/14 03:28:15;;;;;;;24.92;5.18;;;;;;;7.73;71.52;101270.72;5013987;28;20482;-75
2023/01/14 03:30:45;;;;;;;32.30;5.38;;;;;;;7.74;71.47;101277.06;5014532;28;20069;-76
2023/01/14 03:33:20;;;;;;;28.00;5.47;;;;;;;7.75;72.05;101264.97;5013197;28;20034;-75
2023/01/14 03:35:47;;;;;;;28.27;4.90;;;;;;;7.80;71.86;101260.44;5017883;28;20487;-75
2023/01/14 03:38:17;;;;;;;26.42;4.97;;;;;;;7.81;71.78;101267.66;5033150;28;20037;-75
2023/01/14 03:40:46;;;;;;;27.55;5.25;;;;;;;7.77;72.05;101266.44;5027838;28;20523;-75
2023/01/14 03:43:18;;;;;;;27.40;5.43;;;;;;;7.81;71.70;101277.88;5034240;28;20477;-75
2023/01/14 03:45:45;;;;;;;23.10;4.70;;;;;;;7.77;71.87;101271.09;5034053;28;20036;-75
2023/01/14 03:48:11;;;;;;;22.27;4.30;;;;;;;7.80;72.41;101271.50;5032447;28;20150;-75
2023/01/14 03:50:57;;;;;;;34.25;5.60;;;;;;;7.82;72.27;101255.56;5033011;28;20029;-75
2023/01/14 03:53:52;;;;;;;26.52;4.88;;;;;;;7.84;72.32;101258.94;5033437;28;20053;-76
2023/01/14 03:56:57;;;;;;;25.63;5.15;;;;;;;7.85;71.75;101245.97;5023715;28;20702;-75
2023/01/14 03:59:32;;;;;;;23.52;4.75;;;;;;;7.82;72.29;101240.88;4971594;28;20034;-75
2023/01/14 04:01:59;;;;;;;27.75;5.15;;;;;;;7.83;71.97;101239.81;5021529;28;20393;-76
2023/01/14 04:04:25;;;;;;;25.75;4.93;;;;;;;7.72;72.05;101244.16;5026627;28;20112;-76
2023/01/14 04:06:50;;;;;;;28.05;5.47;;;;;;;7.71;72.11;101236.94;5028256;28;20104;-75
2023/01/14 04:09:16;;;;;;;22.70;4.43;;;;;;;7.63;72.92;101232.53;5031239;28;20061;-76
2023/01/14 04:11:41;;;;;;;31.08;4.82;;;;;;;7.63;73.03;101215.13;5028875;28;20025;-75
2023/01/14 04:16:52;;;;;;;20.10;4.40;;;;;;;7.62;73.12;101206.00;5032406;28;20044;-76
2023/01/14 04:19:17;;;;;;;19.10;4.45;;;;;;;7.61;73.18;101201.50;5032615;28;20026;-75
2023/01/14 04:21:42;;;;;;;21.10;4.65;;;;;;;7.62;73.14;101203.22;5032094;28;20461;-76
2023/01/14 04:24:08;;;;;;;22.17;4.57;;;;;;;7.60;72.38;101193.47;5032882;28;20057;-75
2023/01/14 04:26:33;;;;;;;20.42;4.53;;;;;;;7.61;72.65;101187.69;5032503;28;20030;-75
2023/01/14 04:28:58;;;;;;;23.05;4.57;;;;;;;7.62;72.94;101183.91;5026443;28;20030;-75
2023/01/14 04:31:24;;;;;;;26.33;4.53;;;;;;;7.61;73.11;101168.38;5028857;28;20034;-76
2023/01/14 04:33:50;;;;;;;32.60;5.05;;;;;;;7.54;73.24;101161.22;5012832;28;20026;-76
2023/01/14 04:36:16;;;;;;;26.70;4.78;;;;;;;7.51;73.44;101172.72;5030610;28;20025;-75
2023/01/14 04:38:41;;;;;;;29.10;5.22;;;;;;;7.51;73.07;101172.72;5032543;28;20453;-75
2023/01/14 04:42:25;;;;;;;24.45;4.93;;;;;;;7.52;73.75;101171.66;5032402;28;20021;-75
2023/01/14 04:43:52;;;;;;;20.85;4.28;;;;;;;7.50;73.40;101160.81;5031426;28;20233;-76
2023/01/14 04:46:17;;;;;;;26.83;5.47;;;;;;;7.52;73.66;101158.69;5023114;28;20462;-76
2023/01/14 04:48:42;;;;;;;23.83;5.13;;;;;;;7.47;72.97;101161.28;5028593;28;20040;-75
2023/01/14 04:51:08;;;;;;;18.00;4.45;;;;;;;7.45;73.28;101162.56;5031694;28;20373;-76
2023/01/14 04:53:33;;;;;;;28.33;4.72;;;;;;;7.47;73.42;101160.44;5031727;28;20064;-75
2023/01/14 04:55:58;;;;;;;32.25;5.43;;;;;;;7.45;73.07;101152.34;5032075;28;20483;-75
2023/01/14 04:58:23;;;;;;;27.00;4.80;;;;;;;7.45;73.02;101154.28;5031090;28;20021;-76
2023/01/14 05:00:50;;;;;;;26.30;4.72;;;;;;;7.42;73.02;101146.44;5031767;28;20021;-76
2023/01/14 05:03:16;;;;;;;19.83;4.63;;;;;;;7.43;73.00;101142.59;5031053;28;20029;-76
2023/01/14 05:05:42;;;;;;;23.55;4.63;;;;;;;7.40;72.70;101138.38;5029955;28;20079;-75
2023/01/14 05:08:09;;;;;;;21.67;4.70;;;;;;;7.39;73.23;101136.72;5032056;28;20104;-76
2023/01/14 05:10:35;;;;;;;23.02;4.50;;;;;;;7.38;72.97;101135.84;5031467;28;20512;-75
2023/01/14 05:13:02;;;;;;;19.52;4.47;;;;;;;7.35;72.96;101129.94;5031294;28;20141;-76
2023/01/14 05:15:30;;;;;;;15.95;4.20;;;;;;;7.27;73.17;101127.44;5031458;28;20027;-76
2023/01/14 05:17:56;;;;;;;26.95;4.75;;;;;;;7.28;73.11;101115.34;5031536;28;20083;-75
2023/01/14 05:20:26;;;;;;;25.67;5.15;;;;;;;7.31;73.84;101125.91;5029089;28;20445;-76
2023/01/14 05:22:52;;;;;;;19.80;4.40;;;;;;;7.34;73.19;101109.75;5031618;28;20049;-75
2023/01/14 05:25:18;;;;;;;25.30;4.07;;;;;;;7.31;73.23;101106.59;5030694;28;20072;-76
2023/01/14 05:27:43;;;;;;;22.88;4.30;;;;;;;7.29;73.44;101105.97;5031021;28;20457;-76
2023/01/14 05:30:09;;;;;;;24.10;5.22;;;;;;;7.33;73.19;101083.22;5031403;28;20029;-75
2023/01/14 05:32:34;;;;;;;23.45;4.47;;;;;;;7.30;72.80;101077.28;5030341;28;20025;-76
2023/01/14 05:35:00;;;;;;;18.88;4.00;;;;;;;7.30;73.79;101064.31;5011913;28;20041;-76
2023/01/14 05:37:25;;;;;;;18.05;4.28;;;;;;;7.33;73.70;101060.28;5020313;28;20473;-75
2023/01/14 05:39:50;;;;;;;24.38;4.05;;;;;;;7.30;73.17;101044.16;5014974;28;20068;-75
2023/01/14 05:47:44;;;;;;;18.45;3.88;;;;;;;7.39;73.25;101026.25;5011071;28;20037;-76
2023/01/14 05:50:11;;;;;;;17.85;3.72;;;;;;;7.39;72.87;101031.78;5011426;28;20022;-75
2023/01/14 05:52:36;;;;;;;22.92;4.10;;;;;;;7.41;72.48;101018.56;5014042;28;20057;-75
2023/01/14 05:55:01;;;;;;;19.27;3.97;;;;;;;7.42;72.78;101023.00;5022794;28;20035;-76
2023/01/14 05:57:27;;;;;;;19.67;4.85;;;;;;;7.42;72.75;101002.84;5015206;28;20025;-76
2023/01/14 05:59:52;;;;;;;21.80;3.92;;;;;;;7.43;73.18;101005.38;5015123;28;20068;-74
2023/01/14 06:07:41;;;;;;;18.10;4.05;;;;;;;7.43;72.47;100990.72;5013539;28;20103;-73
2023/01/14 06:10:07;;;;;;;20.98;4.38;;;;;;;7.45;73.09;100980.28;5025353;28;20037;-71
2023/01/14 06:12:36;;;;;;;24.73;4.30;;;;;;;7.45;72.65;100986.66;5019740;28;20064;-72
2023/01/14 06:15:01;;;;;;;22.77;4.30;;;;;;;7.45;72.07;100972.84;5025538;28;20036;-72
2023/01/14 06:17:34;;;;;;;19.98;4.20;;;;;;;7.45;72.88;100961.81;5029826;28;20448;-69
2023/01/14 06:19:59;;;;;;;23.75;4.60;;;;;;;7.47;73.25;100967.94;5024476;28;20057;-71
2023/01/14 06:22:25;;;;;;;19.77;4.50;;;;;;;7.45;73.40;100953.50;5010182;28;20045;-71
2023/01/14 06:24:50;;;;;;;21.10;3.70;;;;;;;7.50;72.44;100953.66;5017621;28;20087;-71
2023/01/14 06:27:16;;;;;;;21.90;4.28;;;;;;;7.48;73.40;100944.78;5013064;28;20022;-69
2023/01/14 06:29:41;;;;;;;19.73;3.80;;;;;;;7.45;73.49;100928.66;5028226;28;20026;-71
2023/01/14 06:32:06;;;;;;;25.05;4.20;;;;;;;7.43;73.35;100917.00;5023013;28;20034;-72
2023/01/14 06:34:31;;;;;;;19.63;3.90;;;;;;;7.38;73.65;100916.84;5022862;28;20037;-70
2023/01/14 06:36:57;;;;;;;23.08;3.90;;;;;;;7.36;74.30;100910.72;5018042;28;20030;-70
2023/01/14 06:39:22;;;;;;;22.65;4.35;;;;;;;7.41;76.38;100913.63;5010342;28;20466;-69
2023/01/14 06:41:47;;;;;;;21.90;3.72;;;;;;;7.40;75.24;100895.38;5021221;28;20056;-71
2023/01/14 06:44:13;;;;;;;18.08;4.47;;;;;;;7.41;74.73;100894.28;5010492;28;20393;-71
2023/01/14 06:46:38;;;;;;;19.58;4.18;;;;;;;7.36;75.51;100892.22;5030182;28;20044;-72
2023/01/14 06:49:03;;;;;;;17.27;3.75;;;;;;;7.37;75.03;100893.06;5030265;28;20064;-72
2023/01/14 06:51:31;;;;;;;18.20;3.95;;;;;;;7.38;75.70;100886.47;5028626;28;20030;-72
2023/01/14 06:53:56;;;;;;;18.52;4.00;;;;;;;7.37;76.08;100882.03;5030327;28;20507;-72
2023/01/14 06:56:21;;;;;;;20.33;4.15;;;;;;;7.39;75.77;100877.13;5021251;28;20022;-72
2023/01/14 06:58:48;;;;;;;18.60;3.42;;;;;;;7.42;75.52;100862.84;5024695;28;20587;-72
2023/01/14 07:01:13;;;;;;;20.58;4.22;;;;;;;7.45;76.14;100865.13;5029361;28;20029;-72
2023/01/14 07:03:39;;;;;;;15.68;3.70;;;;;;;7.45;76.75;100847.72;5025944;28;20029;-72
2023/01/14 07:06:05;;;;;;;16.73;3.83;;;;;;;7.39;77.43;100855.03;5019867;28;21236;-70
2023/01/14 07:08:30;;;;;;;15.32;3.92;;;;;;;7.40;77.01;100845.69;5011376;28;20038;-72
2023/01/14 07:10:56;;;;;;;18.85;3.70;;;;;;;7.38;77.83;100848.66;5029390;28;20108;-73
2023/01/14 07:13:22;;;;;;;19.15;3.67;;;;;;;7.33;77.77;100831.94;5028591;28;20092;-72
2023/01/14 07:15:47;;;;;;;15.50;3.85;;;;;;;7.36;77.87;100823.19;5027553;28;20026;-73
2023/01/14 07:18:13;;;;;;;18.58;3.90;;;;;;;7.31;78.53;100812.03;5013149;28;20119;-71
2023/01/14 07:20:40;;;;;;;17.77;4.00;;;;;;;7.35;78.56;100782.88;5010639;28;20033;-72
2023/01/14 07:23:05;;;;;;;15.23;3.33;;;;;;;7.41;78.24;100799.56;5010270;28;20034;-72
2023/01/14 07:25:31;;;;;;;14.48;3.35;;;;;;;7.40;78.59;100778.56;5009554;28;20492;-73
2023/01/14 07:27:56;;;;;;;13.70;3.78;;;;;;;7.41;77.98;100792.13;5010582;28;20053;-72
2023/01/14 07:30:21;;;;;;;14.90;4.03;;;;;;;7.43;78.04;100783.59;5012826;28;20104;-72
2023/01/14 07:32:47;;;;;;;14.73;3.35;;;;;;;7.39;79.19;100780.47;5028201;28;20392;-72
2023/01/14 07:35:12;;;;;;;16.30;3.67;;;;;;;7.36;78.68;100783.72;5017504;28;20505;-72
2023/01/14 07:37:37;;;;;;;17.27;3.90;;;;;;;7.42;79.36;100776.41;5023323;28;20044;-72
2023/01/14 07:40:06;;;;;;;13.80;3.20;;;;;;;7.36;80.20;100762.47;5026430;28;20167;-75
2023/01/14 07:42:31;;;;;;;14.02;3.58;;;;;;;7.39;79.39;100755.63;5027420;28;20041;-73
2023/01/14 07:44:57;;;;;;;12.43;3.30;;;;;;;7.42;79.12;100744.09;5032525;28;20033;-72
2023/01/14 07:47:22;;;;;;;8.13;3.30;;;;;;;7.38;79.77;100731.84;5026298;28;20037;-72
2023/01/14 07:49:48;;;;;;;12.85;3.28;;;;;;;7.33;80.41;100727.03;5033409;28;20740;-72
2023/01/14 07:52:13;;;;;;;10.98;2.85;;;;;;;7.34;80.96;100719.56;5032886;28;20056;-72
2023/01/14 07:54:40;;;;;;;9.95;3.05;;;;;;;7.35;80.28;100710.25;5030976;28;20036;-72
2023/01/14 07:57:07;;;;;;;9.40;3.05;;;;;;;7.38;80.63;100710.59;5033131;28;20026;-72
2023/01/14 07:59:33;;;;;;;10.40;2.80;;;;;;;7.41;79.92;100697.41;5032887;28;20025;-72
2023/01/14 08:01:58;;;;;;;13.43;3.28;;;;;;;7.41;80.70;100691.88;5030861;28;20034;-72
2023/01/14 08:04:23;;;;;;;8.20;2.60;;;;;;;7.38;81.02;100677.44;5013220;28;20088;-72
2023/01/14 08:06:48;;;;;;;11.13;2.72;;;;;;;7.33;80.90;100657.16;5012646;28;20449;-72
2023/01/14 08:09:15;;;;;;;12.10;3.00;;;;;;;7.34;81.96;100661.59;5012452;28;20037;-73
2023/01/14 08:11:40;;;;;;;10.98;3.05;;;;;;;7.34;81.82;100642.28;5018412;28;20021;-72
2023/01/14 08:14:06;;;;;;;9.20;2.30;;;;;;;7.32;81.11;100627.88;5012155;28;20798;-72
2023/01/14 08:16:31;;;;;;;9.45;2.58;;;;;;;7.32;81.21;100630.63;5012782;28;20113;-72
2023/01/14 08:18:56;;;;;;;8.93;2.80;;;;;;;7.30;81.92;100630.03;5017396;28;20057;-72
2023/01/14 08:21:22;;;;;;;8.05;2.28;;;;;;;7.30;82.15;100619.81;5012183;28;20049;-73
2023/01/14 08:23:47;;;;;;;8.38;2.30;;;;;;;7.31;82.01;100604.94;5017932;28;20040;-72
2023/01/14 08:26:13;;;;;;;7.40;2.35;;;;;;;7.31;82.40;100602.19;5013252;28;20461;-73
2023/01/14 08:28:40;;;;;;;7.15;2.65;;;;;;;7.32;82.40;100595.59;5031494;28;20032;-73
2023/01/14 08:31:11;;;;;;;7.97;2.40;;;;;;;7.31;82.46;100590.28;5032786;28;20144;-73
2023/01/14 08:33:37;;;;;;;7.55;2.53;;;;;;;7.37;82.54;100581.06;5026079;28;20099;-73
2023/01/14 08:36:06;;;;;;;6.32;2.08;;;;;;;7.38;82.33;100563.41;5013576;28;20073;-73
2023/01/14 08:38:35;;;;;;;7.68;2.40;;;;;;;7.40;82.28;100563.19;5012531;28;20032;-72
2023/01/14 08:41:05;;;;;;;4.50;1.98;;;;;;;7.41;82.92;100554.66;5012813;28;20050;-72
2023/01/14 08:43:30;;;;;;;6.45;2.03;;;;;;;7.43;82.32;100551.63;5012580;28;20575;-73
2023/01/14 08:45:56;;;;;;;8.73;2.00;;;;;;;7.45;82.45;100544.81;5024092;28;20039;-71
2023/01/14 08:48:21;;;;;;;6.47;2.03;;;;;;;7.45;82.45;100542.03;5030803;28;20063;-72
2023/01/14 08:50:46;;;;;;;6.03;1.92;;;;;;;7.46;82.56;100529.91;5031561;28;20072;-71
2023/01/14 08:53:11;;;;;;;8.45;2.00;;;;;;;7.48;82.93;100522.25;5030938;28;20053;-71
2023/01/14 08:55:38;;;;;;;5.03;1.90;;;;;;;7.51;82.76;100520.94;5027177;28;20534;-72
2023/01/14 08:58:07;;;;;;;7.05;2.25;;;;;;;7.49;83.10;100499.06;5019652;28;20576;-71
2023/01/14 09:00:33;;;;;;;9.65;2.42;;;;;;;7.51;82.72;100488.63;5026782;28;20125;-71
2023/01/14 09:02:59;;;;;;;7.72;2.30;;;;;;;7.51;82.90;100485.84;5022495;28;20038;-72
2023/01/14 09:05:24;;;;;;;4.78;1.67;;;;;;;7.49;83.39;100485.25;5013365;28;20041;-72
2023/01/14 09:18:48;;;;;;;8.15;2.15;;;;;;;7.56;83.85;100452.81;5027026;28;20166;-74
2023/01/14 09:21:13;;;;;;;5.65;1.85;;;;;;;7.57;83.89;100451.72;5026554;28;20041;-75
2023/01/14 09:23:39;;;;;;;7.47;1.83;;;;;;;7.60;83.79;100436.59;5028966;28;20466;-74
2023/01/14 09:26:04;;;;;;;9.50;2.42;;;;;;;7.59;84.33;100437.69;5027817;28;20044;-74
2023/01/14 09:28:30;;;;;;;5.25;2.03;;;;;;;7.55;84.34;100417.19;5028227;28;20037;-74
2023/01/14 09:30:55;;;;;;;8.52;1.98;;;;;;;7.56;84.30;100425.22;5028416;28;20041;-72
2023/01/14 09:33:20;;;;;;;6.07;2.03;;;;;;;7.59;84.12;100408.16;5027218;28;20064;-74
2023/01/14 09:35:46;;;;;;;7.28;1.90;;;;;;;7.60;84.50;100392.41;5019681;28;20030;-76
2023/01/14 09:38:11;;;;;;;7.57;2.05;;;;;;;7.61;85.12;100385.81;5028319;28;20682;-75
2023/01/14 09:40:39;;;;;;;7.95;2.30;;;;;;;7.62;85.68;100385.56;5029468;28;20032;-72
2023/01/14 09:43:12;;;;;;;5.63;2.30;;;;;;;7.65;84.73;100375.09;5031362;28;20064;-73
2023/01/14 09:45:37;;;;;;;6.53;2.05;;;;;;;7.69;84.71;100373.53;5025659;28;20041;-64
2023/01/14 09:48:17;;;;;;;9.70;3.33;;;;;;;7.73;85.11;100375.53;5028240;28;20037;-73
2023/01/14 09:51:08;;;;;;;7.05;2.42;;;;;;;7.74;85.27;100359.81;5021672;28;20033;-72
2023/01/14 09:54:02;;;;;;;8.95;2.25;;;;;;;7.80;85.28;100358.84;5021105;28;20080;-70
2023/01/14 09:56:51;;;;;;;9.68;2.10;;;;;;;7.84;85.07;100354.50;5023545;28;20120;-69
2023/01/14 09:59:42;;;;;;;4.88;2.13;;;;;;;7.86;85.25;100352.34;5020792;28;20037;-73
2023/01/14 10:02:22;;;;;;;7.82;2.33;;;;;;;7.86;85.40;100358.69;5028750;28;20095;-74
2023/01/14 10:04:50;;;;;;;6.70;2.30;;;;;;;7.86;85.43;100341.28;5027474;28;20552;-75
2023/01/14 10:07:17;;;;;;;6.57;2.45;;;;;;;7.84;85.35;100324.94;5028663;28;20108;-72
2023/01/14 10:09:50;;;;;;;6.95;2.30;;;;;;;7.87;85.70;100326.38;5029969;28;20108;-69
2023/01/14 10:12:20;;;;;;;6.38;2.35;;;;;;;7.85;85.36;100312.78;5017133;28;20128;-70
2023/01/14 10:14:58;;;;;;;9.82;2.58;;;;;;;7.88;85.88;100294.88;5027625;28;20108;-68
2023/01/14 10:17:28;;;;;;;10.98;2.60;;;;;;;7.90;86.03;100280.81;5021572;28;20056;-68
2023/01/14 10:19:53;;;;;;;11.38;2.50;;;;;;;7.92;86.27;100279.47;5026173;28;20033;-73
2023/01/14 10:22:38;;;;;;;11.07;2.40;;;;;;;7.95;86.29;100262.41;5021803;28;20342;-78
2023/01/14 10:25:12;;;;;;;7.93;2.25;;;;;;;7.96;86.27;100261.31;5013162;28;20154;-73
2023/01/14 10:27:39;;;;;;;8.05;2.78;;;;;;;7.95;87.00;100256.03;5025124;28;20477;-69
2023/01/14 10:30:34;;;;;;;8.23;2.67;;;;;;;8.01;86.48;100241.19;5020429;28;20091;-72
2023/01/14 10:33:04;;;;;;;5.68;2.00;;;;;;;8.01;86.58;100241.19;5013753;28;20045;-76
2023/01/14 10:35:36;;;;;;;8.20;3.08;;;;;;;8.01;86.76;100233.75;5021292;28;20082;-75
2023/01/14 10:38:02;;;;;;;7.45;3.00;;;;;;;8.06;86.40;100238.53;5019485;28;20029;-63
2023/01/14 10:40:29;;;;;;;11.02;8.52;;;;;;;8.05;86.78;100223.84;5026470;28;20037;-68
2023/01/14 10:42:56;;;;;;;10.70;2.33;;;;;;;8.08;86.60;100215.06;5020530;28;20094;-74
2023/01/14 10:45:22;;;;;;;6.20;1.98;;;;;;;8.10;86.43;100199.09;5027341;28;20021;-74
2023/01/14 10:47:49;;;;;;;3.20;2.30;;;;;;;8.11;86.64;100198.00;5026109;28;20034;-74
2023/01/14 10:50:29;;;;;;;9.05;2.30;;;;;;;8.14;87.55;100188.38;5026727;28;20038;-75
2023/01/14 10:53:14;;;;;;;8.25;1.80;;;;;;;8.16;87.00;100171.50;5028288;28;20041;-73
2023/01/14 10:55:46;;;;;;;5.75;1.88;;;;;;;8.17;87.56;100167.66;5021018;28;20120;-75
2023/01/14 10:58:14;;;;;;;;;;;;;;;8.22;86.31;100173.28;5024819;28;20021;-74
2023/01/14 11:00:42;;;;;;;4.18;1.90;;;;;;;8.19;87.41;100149.72;5028473;28;19967;-74
2023/01/14 11:03:23;;;;;;;4.85;1.63;;;;;;;8.21;87.90;100150.28;5025338;28;20392;-74
2023/01/14 11:06:09;;;;;;;5.03;1.88;;;;;;;8.23;87.73;100142.59;5025359;28;20025;-76
2023/01/14 11:08:46;;;;;;;6.95;1.95;;;;;;;8.26;87.91;100135.72;5026623;28;20033;-73
2023/01/14 11:11:39;;;;;;;4.93;2.03;;;;;;;8.30;88.22;100123.91;5014342;28;20025;-74
2023/01/14 11:14:31;;;;;;;6.47;1.77;;;;;;;8.33;87.87;100117.88;5025858;28;20503;-71
2023/01/14 11:16:59;;;;;;;6.28;1.50;;;;;;;8.32;88.14;100107.88;5017705;28;20095;-72
2023/01/14 11:19:25;;;;;;;3.30;1.80;;;;;;;8.35;87.80;100095.47;5017843;28;20025;-65
2023/01/14 11:21:53;;;;;;;4.10;1.73;;;;;;;8.35;88.16;100096.31;5023721;28;20025;-64
2023/01/14 11:24:35;;;;;;;1.70;1.30;;;;;;;8.39;87.56;100098.59;5031740;28;20040;-73
2023/01/14 11:27:12;;;;;;;4.93;1.60;;;;;;;8.37;88.66;100082.28;5035964;28;20025;-71
2023/01/14 11:29:44;;;;;;;3.95;1.50;;;;;;;8.40;88.66;100078.97;5024622;28;20025;-75
2023/01/14 11:32:13;;;;;;;4.07;1.50;;;;;;;8.43;88.43;100058.28;5030651;28;20021;-70
2023/01/14 11:34:46;;;;;;;2.63;1.42;;;;;;;8.45;87.49;100070.75;5026896;28;20115;-71
2023/01/14 11:37:13;;;;;;;3.53;1.52;;;;;;;8.45;87.79;100056.94;5030226;28;20141;-67
2023/01/14 11:39:40;;;;;;;3.85;1.50;;;;;;;8.48;88.13;100047.25;5015573;28;20045;-69
2023/01/14 11:42:27;;;;;;;1.92;1.40;;;;;;;8.50;87.45;100045.91;5020301;28;20037;-67
2023/01/14 11:45:07;;;;;;;2.78;1.25;;;;;;;8.50;88.18;100029.31;5028179;28;20025;-70
2023/01/14 11:47:46;;;;;;;3.78;1.48;;;;;;;8.50;88.12;100059.75;5025538;28;20032;-78
2023/01/14 11:50:23;;;;;;;2.95;1.40;;;;;;;8.51;87.49;100032.91;5028398;28;20117;-69
2023/01/14 11:53:16;;;;;;;4.25;1.65;;;;;;;8.54;87.83;100024.13;5029823;28;20057;-69
2023/01/14 11:55:44;;;;;;;3.38;1.27;;;;;;;8.55;88.12;100040.44;5026631;28;20103;-68
2023/01/14 11:58:22;;;;;;;2.90;1.35;;;;;;;8.54;88.14;100026.88;5032939;28;20105;-68
2023/01/14 12:01:27;;;;;;;2.60;1.50;;;;;;;8.57;88.13;100013.38;5031025;28;20025;-72
2023/01/14 12:04:10;;;;;;;3.55;1.30;;;;;;;8.57;88.13;99994.00;5028272;28;20045;-68
2023/01/14 12:06:54;;;;;;;2.35;1.30;;;;;;;8.58;88.28;99994.84;5026980;28;20034;-68
2023/01/14 12:09:40;;;;;;;2.65;1.60;;;;;;;8.59;88.23;99993.72;5030134;28;20104;-67